Decoded Metar for LKKV (KARLOVY VARY in CZECH REPUBLIC) (IATA:KLV) | Meteo·Mobile Aviation Weather
aviador You're here:

LKKV Decoded Metar

KARLOVY VARY in CZECH REPUBLIC
Report Time2018-08-22 06:30:00
UTC Time2018-08-22 06:57:51
Flight Rules vfr VFR
WindVRB at 02 kt
Visibility9999 m
Phenomena:N/A
Clouds:Few 023 Hf
Expected CloudBase > 2,400 ft AGL from Temp-Dew spread
CeilingNone
Temp18°C (ISA +7)
Dew Point12°C (68% RH)
AAT17.9°C
QNH1021 hPa
Density Alt2,720 ft
Elevation1,982 ft
Report Wrong Elevation
Raw Report
METAR LKKV 220630Z VRB02KT 9999 FEW023 18/12 Q1021=

Extra information for LKKV:More info

Metar Taf Metar & Taf Last 4 Metars F.Rules Stats Wind Profile Meteogram Temp Stats Airport Information Weather charts Add Link Nearby VenuesMetar ALERT Operation Metar Decoded Social comments